sensor_id;sensor_type;location;lat;lon;timestamp;P1;durP1;ratioP1;P2;durP2;ratioP2
151;SDS011;68;48.792;9.164;2024-01-30T00:01:51;23.30;;;19.67;;
151;SDS011;68;48.792;9.164;2024-01-30T00:04:18;19.73;;;18.73;;
151;SDS011;68;48.792;9.164;2024-01-30T00:06:45;20.85;;;19.85;;
151;SDS011;68;48.792;9.164;2024-01-30T00:09:13;20.27;;;19.27;;
151;SDS011;68;48.792;9.164;2024-01-30T00:11:40;21.20;;;20.10;;
151;SDS011;68;48.792;9.164;2024-01-30T00:14:07;19.77;;;18.77;;
151;SDS011;68;48.792;9.164;2024-01-30T00:16:33;20.40;;;19.35;;
151;SDS011;68;48.792;9.164;2024-01-30T00:19:00;21.05;;;19.98;;
151;SDS011;68;48.792;9.164;2024-01-30T00:21:27;23.45;;;21.05;;
151;SDS011;68;48.792;9.164;2024-01-30T00:23:54;24.48;;;21.25;;
151;SDS011;68;48.792;9.164;2024-01-30T00:26:22;21.70;;;20.60;;
151;SDS011;68;48.792;9.164;2024-01-30T00:28:49;25.63;;;21.17;;
151;SDS011;68;48.792;9.164;2024-01-30T00:31:16;21.23;;;20.20;;
151;SDS011;68;48.792;9.164;2024-01-30T00:33:42;21.73;;;20.63;;
151;SDS011;68;48.792;9.164;2024-01-30T00:36:09;22.75;;;21.00;;
151;SDS011;68;48.792;9.164;2024-01-30T00:38:36;21.67;;;20.58;;
151;SDS011;68;48.792;9.164;2024-01-30T00:41:03;21.33;;;20.20;;
151;SDS011;68;48.792;9.164;2024-01-30T00:43:31;26.55;;;20.75;;
151;SDS011;68;48.792;9.164;2024-01-30T00:45:58;22.90;;;21.35;;
151;SDS011;68;48.792;9.164;2024-01-30T00:48:25;20.65;;;19.55;;
151;SDS011;68;48.792;9.164;2024-01-30T00:50:52;22.20;;;20.98;;
151;SDS011;68;48.792;9.164;2024-01-30T00:53:19;24.65;;;20.75;;
151;SDS011;68;48.792;9.164;2024-01-30T00:55:45;21.55;;;20.45;;
151;SDS011;68;48.792;9.164;2024-01-30T00:58:12;20.75;;;19.73;;
151;SDS011;68;48.792;9.164;2024-01-30T01:00:40;20.33;;;19.33;;
151;SDS011;68;48.792;9.164;2024-01-30T01:03:06;20.35;;;19.35;;
151;SDS011;68;48.792;9.164;2024-01-30T01:05:33;25.83;;;20.45;;
151;SDS011;68;48.792;9.164;2024-01-30T01:08:00;20.75;;;19.75;;
151;SDS011;68;48.792;9.164;2024-01-30T01:10:27;21.13;;;20.05;;
151;SDS011;68;48.792;9.164;2024-01-30T01:12:54;20.42;;;19.45;;
151;SDS011;68;48.792;9.164;2024-01-30T01:15:20;20.67;;;19.58;;
151;SDS011;68;48.792;9.164;2024-01-30T01:17:49;20.15;;;19.15;;
151;SDS011;68;48.792;9.164;2024-01-30T01:20:15;24.25;;;20.30;;
151;SDS011;68;48.792;9.164;2024-01-30T01:22:42;22.02;;;19.27;;
151;SDS011;68;48.792;9.164;2024-01-30T01:25:09;21.42;;;20.33;;
151;SDS011;68;48.792;9.164;2024-01-30T01:27:36;21.83;;;20.73;;
151;SDS011;68;48.792;9.164;2024-01-30T01:30:06;21.50;;;20.35;;
151;SDS011;68;48.792;9.164;2024-01-30T01:32:35;21.20;;;19.77;;
151;SDS011;68;48.792;9.164;2024-01-30T01:35:04;21.33;;;19.65;;
151;SDS011;68;48.792;9.164;2024-01-30T01:37:31;22.00;;;20.90;;
151;SDS011;68;48.792;9.164;2024-01-30T01:39:59;23.60;;;21.15;;
151;SDS011;68;48.792;9.164;2024-01-30T01:42:26;20.70;;;19.40;;
151;SDS011;68;48.792;9.164;2024-01-30T01:44:53;20.70;;;19.70;;
151;SDS011;68;48.792;9.164;2024-01-30T01:47:19;20.05;;;19.05;;
151;SDS011;68;48.792;9.164;2024-01-30T01:49:47;20.02;;;19.02;;
151;SDS011;68;48.792;9.164;2024-01-30T01:52:15;23.17;;;20.45;;
151;SDS011;68;48.792;9.164;2024-01-30T01:54:43;22.17;;;20.10;;
151;SDS011;68;48.792;9.164;2024-01-30T01:57:09;19.83;;;18.83;;
151;SDS011;68;48.792;9.164;2024-01-30T01:59:36;21.55;;;20.17;;
151;SDS011;68;48.792;9.164;2024-01-30T02:02:03;21.23;;;20.13;;
151;SDS011;68;48.792;9.164;2024-01-30T02:04:32;21.63;;;20.52;;
151;SDS011;68;48.792;9.164;2024-01-30T02:06:59;20.60;;;19.60;;
151;SDS011;68;48.792;9.164;2024-01-30T02:09:27;20.70;;;19.70;;
151;SDS011;68;48.792;9.164;2024-01-30T02:11:54;21.00;;;19.95;;
151;SDS011;68;48.792;9.164;2024-01-30T02:14:21;21.00;;;19.95;;
151;SDS011;68;48.792;9.164;2024-01-30T02:16:48;21.80;;;20.70;;
151;SDS011;68;48.792;9.164;2024-01-30T02:19:14;21.00;;;19.95;;
151;SDS011;68;48.792;9.164;2024-01-30T02:21:42;22.70;;;20.67;;
151;SDS011;68;48.792;9.164;2024-01-30T02:24:10;20.83;;;19.73;;
151;SDS011;68;48.792;9.164;2024-01-30T02:26:37;19.80;;;18.80;;
151;SDS011;68;48.792;9.164;2024-01-30T02:29:03;22.52;;;20.95;;
151;SDS011;68;48.792;9.164;2024-01-30T02:31:30;22.00;;;20.90;;
151;SDS011;68;48.792;9.164;2024-01-30T02:33:57;21.17;;;20.10;;
151;SDS011;68;48.792;9.164;2024-01-30T02:36:24;23.48;;;21.50;;
151;SDS011;68;48.792;9.164;2024-01-30T02:38:52;21.35;;;20.10;;
151;SDS011;68;48.792;9.164;2024-01-30T02:41:18;27.48;;;20.88;;
151;SDS011;68;48.792;9.164;2024-01-30T02:43:45;22.08;;;21.00;;
151;SDS011;68;48.792;9.164;2024-01-30T02:46:12;20.77;;;19.73;;
151;SDS011;68;48.792;9.164;2024-01-30T02:48:38;21.10;;;20.00;;
151;SDS011;68;48.792;9.164;2024-01-30T02:51:05;21.23;;;20.13;;
151;SDS011;68;48.792;9.164;2024-01-30T02:53:32;21.55;;;20.45;;
151;SDS011;68;48.792;9.164;2024-01-30T02:56:00;20.38;;;19.40;;
151;SDS011;68;48.792;9.164;2024-01-30T02:58:28;20.75;;;19.75;;
151;SDS011;68;48.792;9.164;2024-01-30T03:00:54;20.20;;;19.20;;
151;SDS011;68;48.792;9.164;2024-01-30T03:03:21;20.33;;;19.33;;
151;SDS011;68;48.792;9.164;2024-01-30T03:05:48;19.48;;;18.50;;
151;SDS011;68;48.792;9.164;2024-01-30T03:08:15;21.27;;;19.70;;
151;SDS011;68;48.792;9.164;2024-01-30T03:10:41;21.35;;;20.25;;
151;SDS011;68;48.792;9.164;2024-01-30T03:13:09;20.65;;;19.65;;
151;SDS011;68;48.792;9.164;2024-01-30T03:15:36;25.23;;;19.90;;
151;SDS011;68;48.792;9.164;2024-01-30T03:18:03;21.52;;;20.33;;
151;SDS011;68;48.792;9.164;2024-01-30T03:20:30;22.38;;;20.92;;
151;SDS011;68;48.792;9.164;2024-01-30T03:22:59;22.48;;;21.13;;
151;SDS011;68;48.792;9.164;2024-01-30T03:25:26;20.60;;;19.65;;
151;SDS011;68;48.792;9.164;2024-01-30T03:27:53;21.13;;;20.02;;
151;SDS011;68;48.792;9.164;2024-01-30T03:30:21;21.33;;;20.23;;
151;SDS011;68;48.792;9.164;2024-01-30T03:32:47;21.85;;;20.75;;
151;SDS011;68;48.792;9.164;2024-01-30T03:35:15;23.13;;;20.20;;
151;SDS011;68;48.792;9.164;2024-01-30T03:37:42;21.13;;;20.05;;
151;SDS011;68;48.792;9.164;2024-01-30T03:40:09;20.90;;;19.90;;
151;SDS011;68;48.792;9.164;2024-01-30T03:42:37;21.50;;;19.80;;
151;SDS011;68;48.792;9.164;2024-01-30T03:45:04;21.40;;;20.30;;
151;SDS011;68;48.792;9.164;2024-01-30T03:47:33;22.48;;;21.38;;
151;SDS011;68;48.792;9.164;2024-01-30T03:50:00;21.25;;;20.13;;
151;SDS011;68;48.792;9.164;2024-01-30T03:52:27;21.70;;;20.30;;
151;SDS011;68;48.792;9.164;2024-01-30T03:54:53;22.42;;;21.35;;
151;SDS011;68;48.792;9.164;2024-01-30T03:57:20;26.42;;;21.60;;
151;SDS011;68;48.792;9.164;2024-01-30T03:59:47;23.13;;;21.98;;
151;SDS011;68;48.792;9.164;2024-01-30T04:02:14;21.25;;;20.15;;
151;SDS011;68;48.792;9.164;2024-01-30T04:04:42;21.60;;;20.52;;
151;SDS011;68;48.792;9.164;2024-01-30T04:07:08;21.42;;;20.33;;
151;SDS011;68;48.792;9.164;2024-01-30T04:09:35;21.40;;;20.30;;
151;SDS011;68;48.792;9.164;2024-01-30T04:12:04;20.80;;;19.80;;
151;SDS011;68;48.792;9.164;2024-01-30T04:14:31;21.42;;;20.33;;
151;SDS011;68;48.792;9.164;2024-01-30T04:16:58;21.67;;;20.08;;
151;SDS011;68;48.792;9.164;2024-01-30T04:19:24;21.80;;;20.70;;
151;SDS011;68;48.792;9.164;2024-01-30T04:21:52;21.10;;;20.00;;
151;SDS011;68;48.792;9.164;2024-01-30T04:24:19;21.88;;;20.77;;
151;SDS011;68;48.792;9.164;2024-01-30T04:26:46;22.20;;;21.10;;
151;SDS011;68;48.792;9.164;2024-01-30T04:29:12;21.58;;;20.48;;
151;SDS011;68;48.792;9.164;2024-01-30T04:31:39;22.55;;;20.88;;
151;SDS011;68;48.792;9.164;2024-01-30T04:34:06;21.77;;;20.67;;
151;SDS011;68;48.792;9.164;2024-01-30T04:36:33;23.40;;;21.45;;
151;SDS011;68;48.792;9.164;2024-01-30T04:39:01;23.23;;;20.48;;
151;SDS011;68;48.792;9.164;2024-01-30T04:41:28;23.10;;;21.83;;
151;SDS011;68;48.792;9.164;2024-01-30T04:43:57;23.33;;;22.13;;
151;SDS011;68;48.792;9.164;2024-01-30T04:46:23;21.90;;;20.80;;
151;SDS011;68;48.792;9.164;2024-01-30T04:48:50;21.88;;;20.80;;
151;SDS011;68;48.792;9.164;2024-01-30T04:51:17;23.67;;;21.65;;
151;SDS011;68;48.792;9.164;2024-01-30T04:53:44;22.15;;;21.05;;
151;SDS011;68;48.792;9.164;2024-01-30T04:56:12;21.65;;;20.55;;
151;SDS011;68;48.792;9.164;2024-01-30T04:58:38;23.70;;;21.15;;
151;SDS011;68;48.792;9.164;2024-01-30T05:01:05;22.98;;;21.80;;
151;SDS011;68;48.792;9.164;2024-01-30T05:03:32;23.10;;;21.55;;
151;SDS011;68;48.792;9.164;2024-01-30T05:06:00;22.65;;;21.55;;
151;SDS011;68;48.792;9.164;2024-01-30T05:08:27;21.88;;;20.83;;
151;SDS011;68;48.792;9.164;2024-01-30T05:10:53;22.55;;;21.45;;
151;SDS011;68;48.792;9.164;2024-01-30T05:13:21;23.95;;;22.30;;
151;SDS011;68;48.792;9.164;2024-01-30T05:15:48;22.88;;;21.77;;
151;SDS011;68;48.792;9.164;2024-01-30T05:18:15;22.92;;;21.83;;
151;SDS011;68;48.792;9.164;2024-01-30T05:20:42;25.92;;;23.63;;
151;SDS011;68;48.792;9.164;2024-01-30T05:23:08;23.63;;;22.45;;
151;SDS011;68;48.792;9.164;2024-01-30T05:25:35;23.00;;;21.17;;
151;SDS011;68;48.792;9.164;2024-01-30T05:28:02;23.42;;;22.23;;
151;SDS011;68;48.792;9.164;2024-01-30T05:30:30;22.05;;;20.98;;
151;SDS011;68;48.792;9.164;2024-01-30T05:32:57;22.75;;;21.65;;
151;SDS011;68;48.792;9.164;2024-01-30T05:35:24;22.48;;;21.33;;
151;SDS011;68;48.792;9.164;2024-01-30T05:37:50;21.80;;;20.70;;
151;SDS011;68;48.792;9.164;2024-01-30T05:40:17;21.52;;;20.42;;
151;SDS011;68;48.792;9.164;2024-01-30T05:42:44;22.52;;;21.40;;
151;SDS011;68;48.792;9.164;2024-01-30T05:45:11;22.65;;;21.48;;
151;SDS011;68;48.792;9.164;2024-01-30T05:47:39;22.80;;;21.73;;
151;SDS011;68;48.792;9.164;2024-01-30T05:50:06;21.85;;;20.75;;
151;SDS011;68;48.792;9.164;2024-01-30T05:52:33;25.70;;;21.25;;
151;SDS011;68;48.792;9.164;2024-01-30T05:55:00;21.55;;;20.17;;
151;SDS011;68;48.792;9.164;2024-01-30T05:57:27;21.60;;;20.50;;
151;SDS011;68;48.792;9.164;2024-01-30T05:59:54;23.25;;;21.23;;
151;SDS011;68;48.792;9.164;2024-01-30T06:02:21;22.08;;;20.98;;
151;SDS011;68;48.792;9.164;2024-01-30T06:04:49;22.27;;;21.17;;
151;SDS011;68;48.792;9.164;2024-01-30T06:07:15;24.35;;;21.83;;
151;SDS011;68;48.792;9.164;2024-01-30T06:09:42;22.80;;;21.70;;
151;SDS011;68;48.792;9.164;2024-01-30T06:12:10;23.30;;;22.10;;
151;SDS011;68;48.792;9.164;2024-01-30T06:14:37;21.92;;;20.83;;
151;SDS011;68;48.792;9.164;2024-01-30T06:17:04;22.02;;;20.17;;
151;SDS011;68;48.792;9.164;2024-01-30T06:19:31;22.98;;;21.85;;
151;SDS011;68;48.792;9.164;2024-01-30T06:21:59;22.52;;;20.80;;
151;SDS011;68;48.792;9.164;2024-01-30T06:24:26;23.00;;;21.88;;
151;SDS011;68;48.792;9.164;2024-01-30T06:26:53;22.83;;;21.73;;
151;SDS011;68;48.792;9.164;2024-01-30T06:29:20;22.75;;;21.65;;
151;SDS011;68;48.792;9.164;2024-01-30T06:31:47;22.10;;;21.00;;
151;SDS011;68;48.792;9.164;2024-01-30T06:34:13;22.27;;;21.17;;
151;SDS011;68;48.792;9.164;2024-01-30T06:36:40;22.67;;;21.42;;
151;SDS011;68;48.792;9.164;2024-01-30T06:39:08;22.17;;;21.08;;
151;SDS011;68;48.792;9.164;2024-01-30T06:41:35;21.60;;;20.42;;
151;SDS011;68;48.792;9.164;2024-01-30T06:44:02;21.55;;;20.45;;
151;SDS011;68;48.792;9.164;2024-01-30T06:46:31;21.33;;;20.23;;
151;SDS011;68;48.792;9.164;2024-01-30T06:48:58;21.80;;;20.70;;
151;SDS011;68;48.792;9.164;2024-01-30T06:51:25;22.02;;;20.92;;
151;SDS011;68;48.792;9.164;2024-01-30T06:53:51;21.40;;;20.30;;
151;SDS011;68;48.792;9.164;2024-01-30T06:56:20;21.48;;;20.23;;
151;SDS011;68;48.792;9.164;2024-01-30T06:58:46;22.15;;;21.05;;
151;SDS011;68;48.792;9.164;2024-01-30T07:01:13;22.35;;;20.58;;
151;SDS011;68;48.792;9.164;2024-01-30T07:03:40;23.25;;;20.73;;
151;SDS011;68;48.792;9.164;2024-01-30T07:06:08;21.55;;;20.45;;
151;SDS011;68;48.792;9.164;2024-01-30T07:08:35;22.83;;;21.00;;
151;SDS011;68;48.792;9.164;2024-01-30T07:11:04;21.55;;;20.45;;
151;SDS011;68;48.792;9.164;2024-01-30T07:13:32;22.58;;;21.48;;
151;SDS011;68;48.792;9.164;2024-01-30T07:16:00;24.85;;;20.42;;
151;SDS011;68;48.792;9.164;2024-01-30T07:18:27;23.40;;;21.10;;
151;SDS011;68;48.792;9.164;2024-01-30T07:20:53;21.90;;;20.80;;
151;SDS011;68;48.792;9.164;2024-01-30T07:23:20;28.85;;;21.90;;
151;SDS011;68;48.792;9.164;2024-01-30T07:25:47;23.23;;;21.15;;
151;SDS011;68;48.792;9.164;2024-01-30T07:28:14;22.15;;;21.05;;
151;SDS011;68;48.792;9.164;2024-01-30T07:30:44;22.70;;;21.55;;
151;SDS011;68;48.792;9.164;2024-01-30T07:33:10;25.38;;;21.65;;
151;SDS011;68;48.792;9.164;2024-01-30T07:35:37;22.38;;;20.98;;
151;SDS011;68;48.792;9.164;2024-01-30T07:38:04;22.45;;;20.63;;
151;SDS011;68;48.792;9.164;2024-01-30T07:40:31;23.10;;;21.95;;
151;SDS011;68;48.792;9.164;2024-01-30T07:42:58;21.73;;;20.63;;
151;SDS011;68;48.792;9.164;2024-01-30T07:45:25;26.65;;;21.85;;
151;SDS011;68;48.792;9.164;2024-01-30T07:47:58;23.33;;;21.15;;
151;SDS011;68;48.792;9.164;2024-01-30T07:50:26;21.85;;;20.75;;
151;SDS011;68;48.792;9.164;2024-01-30T07:52:53;24.15;;;21.58;;
151;SDS011;68;48.792;9.164;2024-01-30T07:55:20;22.17;;;21.02;;
151;SDS011;68;48.792;9.164;2024-01-30T07:57:49;23.40;;;21.92;;
151;SDS011;68;48.792;9.164;2024-01-30T08:00:16;23.52;;;21.70;;
151;SDS011;68;48.792;9.164;2024-01-30T08:02:44;23.10;;;21.40;;
151;SDS011;68;48.792;9.164;2024-01-30T08:05:12;34.83;;;26.95;;
151;SDS011;68;48.792;9.164;2024-01-30T08:07:40;38.05;;;33.35;;
151;SDS011;68;48.792;9.164;2024-01-30T08:10:07;35.95;;;30.98;;
151;SDS011;68;48.792;9.164;2024-01-30T08:12:34;32.22;;;27.25;;
151;SDS011;68;48.792;9.164;2024-01-30T08:15:01;29.25;;;26.40;;
151;SDS011;68;48.792;9.164;2024-01-30T08:17:28;27.75;;;23.45;;
151;SDS011;68;48.792;9.164;2024-01-30T08:19:55;24.23;;;21.08;;
151;SDS011;68;48.792;9.164;2024-01-30T08:22:23;23.00;;;21.88;;
151;SDS011;68;48.792;9.164;2024-01-30T08:24:50;26.45;;;23.33;;
151;SDS011;68;48.792;9.164;2024-01-30T08:27:17;25.38;;;22.20;;
151;SDS011;68;48.792;9.164;2024-01-30T08:29:43;23.60;;;21.48;;
151;SDS011;68;48.792;9.164;2024-01-30T08:32:11;28.00;;;23.83;;
151;SDS011;68;48.792;9.164;2024-01-30T08:34:38;27.17;;;21.83;;
151;SDS011;68;48.792;9.164;2024-01-30T08:37:04;24.33;;;21.77;;
151;SDS011;68;48.792;9.164;2024-01-30T08:39:33;28.33;;;22.73;;
151;SDS011;68;48.792;9.164;2024-01-30T08:41:59;23.25;;;21.95;;
151;SDS011;68;48.792;9.164;2024-01-30T08:44:26;27.35;;;21.30;;
151;SDS011;68;48.792;9.164;2024-01-30T08:46:53;25.10;;;21.50;;
151;SDS011;68;48.792;9.164;2024-01-30T08:49:20;26.63;;;21.70;;
151;SDS011;68;48.792;9.164;2024-01-30T08:51:47;23.23;;;22.02;;
151;SDS011;68;48.792;9.164;2024-01-30T08:54:13;31.92;;;22.05;;
151;SDS011;68;48.792;9.164;2024-01-30T08:56:42;24.00;;;22.80;;
151;SDS011;68;48.792;9.164;2024-01-30T08:59:09;26.33;;;22.98;;
151;SDS011;68;48.792;9.164;2024-01-30T09:01:36;32.40;;;22.63;;
151;SDS011;68;48.792;9.164;2024-01-30T09:04:03;23.38;;;22.20;;
151;SDS011;68;48.792;9.164;2024-01-30T09:06:30;26.67;;;22.75;;
151;SDS011;68;48.792;9.164;2024-01-30T09:08:56;23.38;;;21.85;;
151;SDS011;68;48.792;9.164;2024-01-30T09:11:23;31.08;;;24.35;;
151;SDS011;68;48.792;9.164;2024-01-30T09:13:51;27.60;;;23.20;;
151;SDS011;68;48.792;9.164;2024-01-30T09:16:18;28.42;;;23.73;;
151;SDS011;68;48.792;9.164;2024-01-30T09:18:45;25.55;;;22.35;;
151;SDS011;68;48.792;9.164;2024-01-30T09:21:11;25.08;;;23.80;;
151;SDS011;68;48.792;9.164;2024-01-30T09:23:38;30.38;;;23.85;;
151;SDS011;68;48.792;9.164;2024-01-30T09:26:08;27.92;;;24.35;;
151;SDS011;68;48.792;9.164;2024-01-30T09:28:35;34.33;;;24.80;;
151;SDS011;68;48.792;9.164;2024-01-30T09:31:03;32.95;;;24.40;;
151;SDS011;68;48.792;9.164;2024-01-30T09:33:30;32.58;;;25.25;;
151;SDS011;68;48.792;9.164;2024-01-30T09:35:57;26.77;;;24.73;;
151;SDS011;68;48.792;9.164;2024-01-30T09:38:23;33.67;;;25.15;;
151;SDS011;68;48.792;9.164;2024-01-30T09:40:51;31.50;;;25.00;;
151;SDS011;68;48.792;9.164;2024-01-30T09:43:21;29.92;;;24.40;;
151;SDS011;68;48.792;9.164;2024-01-30T09:45:50;27.05;;;25.30;;
151;SDS011;68;48.792;9.164;2024-01-30T09:48:18;30.92;;;24.38;;
151;SDS011;68;48.792;9.164;2024-01-30T09:50:45;28.85;;;23.63;;
151;SDS011;68;48.792;9.164;2024-01-30T09:53:12;30.45;;;25.45;;
151;SDS011;68;48.792;9.164;2024-01-30T09:55:40;41.42;;;28.20;;
151;SDS011;68;48.792;9.164;2024-01-30T09:58:11;37.10;;;27.60;;
151;SDS011;68;48.792;9.164;2024-01-30T10:00:38;28.65;;;25.27;;
151;SDS011;68;48.792;9.164;2024-01-30T10:03:05;32.45;;;26.50;;
151;SDS011;68;48.792;9.164;2024-01-30T10:05:33;40.85;;;29.38;;
151;SDS011;68;48.792;9.164;2024-01-30T10:08:05;44.97;;;28.88;;
151;SDS011;68;48.792;9.164;2024-01-30T10:10:33;33.45;;;26.77;;
151;SDS011;68;48.792;9.164;2024-01-30T10:13:00;38.15;;;29.17;;
151;SDS011;68;48.792;9.164;2024-01-30T10:15:27;37.08;;;29.05;;
151;SDS011;68;48.792;9.164;2024-01-30T10:17:54;30.55;;;27.08;;
151;SDS011;68;48.792;9.164;2024-01-30T10:20:21;35.70;;;27.65;;
151;SDS011;68;48.792;9.164;2024-01-30T10:22:52;28.85;;;25.33;;
151;SDS011;68;48.792;9.164;2024-01-30T10:25:19;29.70;;;24.80;;
151;SDS011;68;48.792;9.164;2024-01-30T10:27:51;34.58;;;27.25;;
151;SDS011;68;48.792;9.164;2024-01-30T10:30:19;35.08;;;26.40;;
151;SDS011;68;48.792;9.164;2024-01-30T10:32:45;33.50;;;25.80;;
151;SDS011;68;48.792;9.164;2024-01-30T10:35:12;37.50;;;26.02;;
151;SDS011;68;48.792;9.164;2024-01-30T10:37:39;34.42;;;25.00;;
151;SDS011;68;48.792;9.164;2024-01-30T10:40:12;32.80;;;25.25;;
151;SDS011;68;48.792;9.164;2024-01-30T10:42:41;45.35;;;25.90;;
151;SDS011;68;48.792;9.164;2024-01-30T10:45:10;30.63;;;23.23;;
151;SDS011;68;48.792;9.164;2024-01-30T10:47:39;33.28;;;24.75;;
151;SDS011;68;48.792;9.164;2024-01-30T10:50:07;40.17;;;25.45;;
151;SDS011;68;48.792;9.164;2024-01-30T10:52:35;33.30;;;27.10;;
151;SDS011;68;48.792;9.164;2024-01-30T10:55:03;30.55;;;26.55;;
151;SDS011;68;48.792;9.164;2024-01-30T10:57:33;33.53;;;25.25;;
151;SDS011;68;48.792;9.164;2024-01-30T11:00:02;31.20;;;25.60;;
151;SDS011;68;48.792;9.164;2024-01-30T11:02:31;30.52;;;24.95;;
151;SDS011;68;48.792;9.164;2024-01-30T11:04:58;38.58;;;25.85;;
151;SDS011;68;48.792;9.164;2024-01-30T11:07:26;32.50;;;25.05;;
151;SDS011;68;48.792;9.164;2024-01-30T11:10:01;35.25;;;25.85;;
151;SDS011;68;48.792;9.164;2024-01-30T11:12:30;31.33;;;27.45;;
151;SDS011;68;48.792;9.164;2024-01-30T11:15:04;36.42;;;26.77;;
151;SDS011;68;48.792;9.164;2024-01-30T11:17:45;32.05;;;26.65;;
151;SDS011;68;48.792;9.164;2024-01-30T11:20:16;34.47;;;26.40;;
151;SDS011;68;48.792;9.164;2024-01-30T11:22:45;38.00;;;26.95;;
151;SDS011;68;48.792;9.164;2024-01-30T11:25:13;36.17;;;27.75;;
151;SDS011;68;48.792;9.164;2024-01-30T11:27:41;31.70;;;25.48;;
151;SDS011;68;48.792;9.164;2024-01-30T11:30:10;31.80;;;26.55;;
151;SDS011;68;48.792;9.164;2024-01-30T11:32:37;37.47;;;26.33;;
151;SDS011;68;48.792;9.164;2024-01-30T11:35:04;34.10;;;26.85;;
151;SDS011;68;48.792;9.164;2024-01-30T11:37:33;28.17;;;25.42;;
151;SDS011;68;48.792;9.164;2024-01-30T11:40:04;34.10;;;25.48;;
151;SDS011;68;48.792;9.164;2024-01-30T11:42:31;29.77;;;26.35;;
151;SDS011;68;48.792;9.164;2024-01-30T11:44:59;33.03;;;25.58;;
151;SDS011;68;48.792;9.164;2024-01-30T11:47:28;29.23;;;25.88;;
151;SDS011;68;48.792;9.164;2024-01-30T11:49:55;29.83;;;26.00;;
151;SDS011;68;48.792;9.164;2024-01-30T11:52:22;34.13;;;26.73;;
151;SDS011;68;48.792;9.164;2024-01-30T11:54:49;36.15;;;25.52;;
151;SDS011;68;48.792;9.164;2024-01-30T11:57:16;34.13;;;25.75;;
151;SDS011;68;48.792;9.164;2024-01-30T11:59:43;36.65;;;25.60;;
151;SDS011;68;48.792;9.164;2024-01-30T12:02:14;32.55;;;25.23;;
151;SDS011;68;48.792;9.164;2024-01-30T12:04:43;30.95;;;24.90;;
151;SDS011;68;48.792;9.164;2024-01-30T12:07:10;26.80;;;24.10;;
151;SDS011;68;48.792;9.164;2024-01-30T12:09:37;27.92;;;25.02;;
151;SDS011;68;48.792;9.164;2024-01-30T12:12:04;30.85;;;24.40;;
151;SDS011;68;48.792;9.164;2024-01-30T12:14:36;38.63;;;26.52;;
151;SDS011;68;48.792;9.164;2024-01-30T12:17:04;33.53;;;25.55;;
151;SDS011;68;48.792;9.164;2024-01-30T12:19:32;50.85;;;35.83;;
151;SDS011;68;48.792;9.164;2024-01-30T12:22:01;48.42;;;42.30;;
151;SDS011;68;48.792;9.164;2024-01-30T12:24:27;59.40;;;35.60;;
151;SDS011;68;48.792;9.164;2024-01-30T12:26:56;38.97;;;30.30;;
151;SDS011;68;48.792;9.164;2024-01-30T12:29:23;37.92;;;28.58;;
151;SDS011;68;48.792;9.164;2024-01-30T12:31:52;37.28;;;27.70;;
151;SDS011;68;48.792;9.164;2024-01-30T12:34:19;34.42;;;28.02;;
151;SDS011;68;48.792;9.164;2024-01-30T12:36:46;31.60;;;25.67;;
151;SDS011;68;48.792;9.164;2024-01-30T12:39:15;32.53;;;26.83;;
151;SDS011;68;48.792;9.164;2024-01-30T12:41:42;30.60;;;25.85;;
151;SDS011;68;48.792;9.164;2024-01-30T12:44:09;28.98;;;25.55;;
151;SDS011;68;48.792;9.164;2024-01-30T12:46:35;28.85;;;24.02;;
151;SDS011;68;48.792;9.164;2024-01-30T12:49:02;33.67;;;24.40;;
151;SDS011;68;48.792;9.164;2024-01-30T12:51:29;33.50;;;24.17;;
151;SDS011;68;48.792;9.164;2024-01-30T12:53:56;25.45;;;23.83;;
151;SDS011;68;48.792;9.164;2024-01-30T12:56:24;30.20;;;23.88;;
151;SDS011;68;48.792;9.164;2024-01-30T12:58:51;27.45;;;24.45;;
151;SDS011;68;48.792;9.164;2024-01-30T13:01:18;27.73;;;22.80;;
151;SDS011;68;48.792;9.164;2024-01-30T13:03:44;30.98;;;23.38;;
151;SDS011;68;48.792;9.164;2024-01-30T13:06:11;29.90;;;23.50;;
151;SDS011;68;48.792;9.164;2024-01-30T13:08:38;31.65;;;23.73;;
151;SDS011;68;48.792;9.164;2024-01-30T13:11:05;26.73;;;22.75;;
151;SDS011;68;48.792;9.164;2024-01-30T13:13:33;38.00;;;23.40;;
151;SDS011;68;48.792;9.164;2024-01-30T13:16:00;27.92;;;21.50;;
151;SDS011;68;48.792;9.164;2024-01-30T13:18:27;27.52;;;22.05;;
151;SDS011;68;48.792;9.164;2024-01-30T13:20:54;24.92;;;21.08;;
151;SDS011;68;48.792;9.164;2024-01-30T13:23:21;30.75;;;23.30;;
151;SDS011;68;48.792;9.164;2024-01-30T13:25:47;29.23;;;23.77;;
151;SDS011;68;48.792;9.164;2024-01-30T13:28:14;35.20;;;24.00;;
151;SDS011;68;48.792;9.164;2024-01-30T13:30:42;30.85;;;22.50;;
151;SDS011;68;48.792;9.164;2024-01-30T13:33:09;26.58;;;21.33;;
151;SDS011;68;48.792;9.164;2024-01-30T13:35:36;27.95;;;22.10;;
151;SDS011;68;48.792;9.164;2024-01-30T13:38:03;39.30;;;24.55;;
151;SDS011;68;48.792;9.164;2024-01-30T13:40:30;41.97;;;23.63;;
151;SDS011;68;48.792;9.164;2024-01-30T13:42:56;28.85;;;24.20;;
151;SDS011;68;48.792;9.164;2024-01-30T13:45:23;38.88;;;24.38;;
151;SDS011;68;48.792;9.164;2024-01-30T13:47:51;43.13;;;27.33;;
151;SDS011;68;48.792;9.164;2024-01-30T13:50:18;41.60;;;26.48;;
151;SDS011;68;48.792;9.164;2024-01-30T13:52:45;36.55;;;26.60;;
151;SDS011;68;48.792;9.164;2024-01-30T13:55:12;42.80;;;26.65;;
151;SDS011;68;48.792;9.164;2024-01-30T13:57:39;37.70;;;26.50;;
151;SDS011;68;48.792;9.164;2024-01-30T14:00:06;38.95;;;28.25;;
151;SDS011;68;48.792;9.164;2024-01-30T14:02:34;38.45;;;27.27;;
151;SDS011;68;48.792;9.164;2024-01-30T14:05:02;42.90;;;28.02;;
151;SDS011;68;48.792;9.164;2024-01-30T14:07:31;41.40;;;27.83;;
151;SDS011;68;48.792;9.164;2024-01-30T14:09:57;34.17;;;25.85;;
151;SDS011;68;48.792;9.164;2024-01-30T14:12:24;34.80;;;24.95;;
151;SDS011;68;48.792;9.164;2024-01-30T14:14:51;36.40;;;25.60;;
151;SDS011;68;48.792;9.164;2024-01-30T14:17:18;39.00;;;24.20;;
151;SDS011;68;48.792;9.164;2024-01-30T14:19:44;30.50;;;25.23;;
151;SDS011;68;48.792;9.164;2024-01-30T14:22:12;32.13;;;24.60;;
151;SDS011;68;48.792;9.164;2024-01-30T14:24:39;33.60;;;25.17;;
151;SDS011;68;48.792;9.164;2024-01-30T14:27:06;36.00;;;25.77;;
151;SDS011;68;48.792;9.164;2024-01-30T14:29:33;40.15;;;26.48;;
151;SDS011;68;48.792;9.164;2024-01-30T14:32:00;42.05;;;25.30;;
151;SDS011;68;48.792;9.164;2024-01-30T14:34:29;30.58;;;24.52;;
151;SDS011;68;48.792;9.164;2024-01-30T14:36:55;37.33;;;25.95;;
151;SDS011;68;48.792;9.164;2024-01-30T14:39:24;40.38;;;26.13;;
151;SDS011;68;48.792;9.164;2024-01-30T14:41:51;44.25;;;27.25;;
151;SDS011;68;48.792;9.164;2024-01-30T14:44:17;39.30;;;26.77;;
151;SDS011;68;48.792;9.164;2024-01-30T14:46:44;40.50;;;27.00;;
151;SDS011;68;48.792;9.164;2024-01-30T14:49:11;42.72;;;27.85;;
151;SDS011;68;48.792;9.164;2024-01-30T14:51:38;41.35;;;28.52;;
151;SDS011;68;48.792;9.164;2024-01-30T14:54:04;42.50;;;27.60;;
151;SDS011;68;48.792;9.164;2024-01-30T14:56:33;37.63;;;26.75;;
151;SDS011;68;48.792;9.164;2024-01-30T14:58:59;40.03;;;27.33;;
151;SDS011;68;48.792;9.164;2024-01-30T15:01:27;42.83;;;27.85;;
151;SDS011;68;48.792;9.164;2024-01-30T15:03:54;49.03;;;27.98;;
151;SDS011;68;48.792;9.164;2024-01-30T15:06:21;42.92;;;26.98;;
151;SDS011;68;48.792;9.164;2024-01-30T15:08:49;42.53;;;26.83;;
151;SDS011;68;48.792;9.164;2024-01-30T15:11:16;39.17;;;26.63;;
151;SDS011;68;48.792;9.164;2024-01-30T15:13:44;36.05;;;26.45;;
151;SDS011;68;48.792;9.164;2024-01-30T15:16:11;45.60;;;27.02;;
151;SDS011;68;48.792;9.164;2024-01-30T15:18:38;41.25;;;26.50;;
151;SDS011;68;48.792;9.164;2024-01-30T15:21:05;37.78;;;26.83;;
151;SDS011;68;48.792;9.164;2024-01-30T15:23:31;45.80;;;27.20;;
151;SDS011;68;48.792;9.164;2024-01-30T15:25:58;46.47;;;26.88;;
151;SDS011;68;48.792;9.164;2024-01-30T15:28:33;41.30;;;25.95;;
151;SDS011;68;48.792;9.164;2024-01-30T15:31:03;35.58;;;26.20;;